aviador You're here:

KFRR Decoded Metar

in
Report Time2017-08-22 10:55:00
UTC Time2017-08-22 11:15:21
Flight Rules vfr VFR
Wind190° at 04 kt
W.Decomp.*RWY 10: 4.0 kt RCW
W.Rank190° ranks 2
Current wind is below 190° avg. (4.4)
Visibility9999 m
Phenomena:N/A
Clouds:N/A
CeilingNone
Temp21°C
Dew Point21°C (100% RH)
QNH1018 hPa
Raw Report
METAR KFRR 221055Z AUTO 19004KT 10SM CLR 21/21 A3006 RMK AO1=

Extra information for KFRR:More info

Social comments